sensor_id;sensor_type;location;lat;lon;timestamp;temperature;humidity
35497;DHT22;21609;49.298;6.844;2023-03-14T00:01:50;17.00;53.40
35497;DHT22;21609;49.298;6.844;2023-03-14T00:04:16;17.00;53.40
35497;DHT22;21609;49.298;6.844;2023-03-14T00:06:41;16.90;53.30
35497;DHT22;21609;49.298;6.844;2023-03-14T00:09:07;16.90;53.30
35497;DHT22;21609;49.298;6.844;2023-03-14T00:11:33;16.90;53.30
35497;DHT22;21609;49.298;6.844;2023-03-14T00:13:58;16.90;53.30
35497;DHT22;21609;49.298;6.844;2023-03-14T00:16:25;16.90;53.30
35497;DHT22;21609;49.298;6.844;2023-03-14T00:18:51;16.90;53.30
35497;DHT22;21609;49.298;6.844;2023-03-14T00:21:17;16.90;53.30
35497;DHT22;21609;49.298;6.844;2023-03-14T00:23:43;17.00;53.40
35497;DHT22;21609;49.298;6.844;2023-03-14T00:26:14;16.90;53.30
35497;DHT22;21609;49.298;6.844;2023-03-14T00:28:41;16.90;53.30
35497;DHT22;21609;49.298;6.844;2023-03-14T00:31:08;16.90;53.30
35497;DHT22;21609;49.298;6.844;2023-03-14T00:33:34;16.90;53.30
35497;DHT22;21609;49.298;6.844;2023-03-14T00:36:03;16.90;53.40
35497;DHT22;21609;49.298;6.844;2023-03-14T00:38:30;16.90;53.30
35497;DHT22;21609;49.298;6.844;2023-03-14T00:40:56;16.90;53.30
35497;DHT22;21609;49.298;6.844;2023-03-14T00:43:21;16.90;53.30
35497;DHT22;21609;49.298;6.844;2023-03-14T00:45:48;16.90;53.30
35497;DHT22;21609;49.298;6.844;2023-03-14T00:48:14;16.90;53.30
35497;DHT22;21609;49.298;6.844;2023-03-14T00:50:39;16.90;53.40
35497;DHT22;21609;49.298;6.844;2023-03-14T00:53:05;16.90;53.30
35497;DHT22;21609;49.298;6.844;2023-03-14T00:55:31;16.90;53.30
35497;DHT22;21609;49.298;6.844;2023-03-14T00:57:56;16.90;53.30
35497;DHT22;21609;49.298;6.844;2023-03-14T01:00:22;16.90;53.30
35497;DHT22;21609;49.298;6.844;2023-03-14T01:02:48;16.90;53.30
35497;DHT22;21609;49.298;6.844;2023-03-14T01:05:13;16.90;53.30
35497;DHT22;21609;49.298;6.844;2023-03-14T01:07:39;16.90;53.30
35497;DHT22;21609;49.298;6.844;2023-03-14T01:10:05;16.90;53.30
35497;DHT22;21609;49.298;6.844;2023-03-14T01:12:31;16.90;53.30
35497;DHT22;21609;49.298;6.844;2023-03-14T01:14:57;16.90;53.30
35497;DHT22;21609;49.298;6.844;2023-03-14T01:17:22;16.90;53.30
35497;DHT22;21609;49.298;6.844;2023-03-14T01:19:48;16.90;53.30
35497;DHT22;21609;49.298;6.844;2023-03-14T01:22:14;16.90;53.30
35497;DHT22;21609;49.298;6.844;2023-03-14T01:24:39;16.90;53.30
35497;DHT22;21609;49.298;6.844;2023-03-14T01:27:05;16.90;53.30
35497;DHT22;21609;49.298;6.844;2023-03-14T01:29:31;16.90;53.30
35497;DHT22;21609;49.298;6.844;2023-03-14T01:31:56;16.90;53.30
35497;DHT22;21609;49.298;6.844;2023-03-14T01:34:22;16.90;53.30
35497;DHT22;21609;49.298;6.844;2023-03-14T01:36:47;16.90;53.30
35497;DHT22;21609;49.298;6.844;2023-03-14T01:39:13;16.80;53.30
35497;DHT22;21609;49.298;6.844;2023-03-14T01:41:39;16.80;53.30
35497;DHT22;21609;49.298;6.844;2023-03-14T01:44:08;16.80;53.30
35497;DHT22;21609;49.298;6.844;2023-03-14T01:46:45;16.80;53.40
35497;DHT22;21609;49.298;6.844;2023-03-14T01:49:37;16.90;53.30
35497;DHT22;21609;49.298;6.844;2023-03-14T01:52:12;16.80;53.30
35497;DHT22;21609;49.298;6.844;2023-03-14T01:55:09;16.80;53.30
35497;DHT22;21609;49.298;6.844;2023-03-14T01:57:39;16.80;53.30
35497;DHT22;21609;49.298;6.844;2023-03-14T02:00:08;16.80;53.30
35497;DHT22;21609;49.298;6.844;2023-03-14T02:02:39;16.90;53.30
35497;DHT22;21609;49.298;6.844;2023-03-14T02:05:06;16.80;53.20
35497;DHT22;21609;49.298;6.844;2023-03-14T02:07:59;16.80;53.30
35497;DHT22;21609;49.298;6.844;2023-03-14T02:10:33;16.80;53.30
35497;DHT22;21609;49.298;6.844;2023-03-14T02:13:01;16.80;53.30
35497;DHT22;21609;49.298;6.844;2023-03-14T02:15:28;16.90;53.30
35497;DHT22;21609;49.298;6.844;2023-03-14T02:17:54;16.80;53.30
35497;DHT22;21609;49.298;6.844;2023-03-14T02:20:56;16.80;53.20
35497;DHT22;21609;49.298;6.844;2023-03-14T02:23:57;16.80;53.30
35497;DHT22;21609;49.298;6.844;2023-03-14T02:26:34;16.80;53.20
35497;DHT22;21609;49.298;6.844;2023-03-14T02:29:01;16.80;53.30
35497;DHT22;21609;49.298;6.844;2023-03-14T02:31:27;16.80;53.20
35497;DHT22;21609;49.298;6.844;2023-03-14T02:33:53;16.80;53.30
35497;DHT22;21609;49.298;6.844;2023-03-14T02:36:20;16.80;53.20
35497;DHT22;21609;49.298;6.844;2023-03-14T02:39:00;16.80;53.20
35497;DHT22;21609;49.298;6.844;2023-03-14T02:41:30;16.80;53.20
35497;DHT22;21609;49.298;6.844;2023-03-14T02:43:56;16.80;53.20
35497;DHT22;21609;49.298;6.844;2023-03-14T02:46:21;16.80;53.20
35497;DHT22;21609;49.298;6.844;2023-03-14T02:49:01;16.80;53.20
35497;DHT22;21609;49.298;6.844;2023-03-14T02:51:27;16.80;53.20
35497;DHT22;21609;49.298;6.844;2023-03-14T02:53:53;16.80;53.10
35497;DHT22;21609;49.298;6.844;2023-03-14T02:56:19;16.80;53.20
35497;DHT22;21609;49.298;6.844;2023-03-14T02:58:44;16.80;53.20
35497;DHT22;21609;49.298;6.844;2023-03-14T03:01:10;16.80;53.20
35497;DHT22;21609;49.298;6.844;2023-03-14T03:03:36;16.80;53.20
35497;DHT22;21609;49.298;6.844;2023-03-14T03:06:01;16.80;53.20
35497;DHT22;21609;49.298;6.844;2023-03-14T03:08:28;16.80;53.20
35497;DHT22;21609;49.298;6.844;2023-03-14T03:10:53;16.80;53.20
35497;DHT22;21609;49.298;6.844;2023-03-14T03:13:20;16.80;53.20
35497;DHT22;21609;49.298;6.844;2023-03-14T03:15:45;16.80;53.20
35497;DHT22;21609;49.298;6.844;2023-03-14T03:18:11;16.80;53.20
35497;DHT22;21609;49.298;6.844;2023-03-14T03:20:37;16.80;53.30
35497;DHT22;21609;49.298;6.844;2023-03-14T03:23:03;16.80;53.20
35497;DHT22;21609;49.298;6.844;2023-03-14T03:25:29;16.80;53.30
35497;DHT22;21609;49.298;6.844;2023-03-14T03:27:55;16.80;53.20
35497;DHT22;21609;49.298;6.844;2023-03-14T03:30:21;16.80;53.20
35497;DHT22;21609;49.298;6.844;2023-03-14T03:32:47;16.80;53.30
35497;DHT22;21609;49.298;6.844;2023-03-14T03:35:12;16.80;53.20
35497;DHT22;21609;49.298;6.844;2023-03-14T03:37:38;16.70;53.20
35497;DHT22;21609;49.298;6.844;2023-03-14T03:40:05;16.70;53.20
35497;DHT22;21609;49.298;6.844;2023-03-14T03:42:32;16.70;53.30
35497;DHT22;21609;49.298;6.844;2023-03-14T03:44:59;16.70;53.20
35497;DHT22;21609;49.298;6.844;2023-03-14T03:47:25;16.70;53.30
35497;DHT22;21609;49.298;6.844;2023-03-14T03:49:50;16.70;53.30
35497;DHT22;21609;49.298;6.844;2023-03-14T03:52:16;16.70;53.30
35497;DHT22;21609;49.298;6.844;2023-03-14T03:54:41;16.70;53.20
35497;DHT22;21609;49.298;6.844;2023-03-14T03:57:07;16.70;53.30
35497;DHT22;21609;49.298;6.844;2023-03-14T03:59:32;16.70;53.30
35497;DHT22;21609;49.298;6.844;2023-03-14T04:01:58;16.70;53.30
35497;DHT22;21609;49.298;6.844;2023-03-14T04:04:24;16.70;53.30
35497;DHT22;21609;49.298;6.844;2023-03-14T04:06:49;16.70;53.30
35497;DHT22;21609;49.298;6.844;2023-03-14T04:09:15;16.70;53.30
35497;DHT22;21609;49.298;6.844;2023-03-14T04:11:40;16.70;53.30
35497;DHT22;21609;49.298;6.844;2023-03-14T04:14:07;16.70;53.30
35497;DHT22;21609;49.298;6.844;2023-03-14T04:16:32;16.70;53.30
35497;DHT22;21609;49.298;6.844;2023-03-14T04:18:58;16.70;53.30
35497;DHT22;21609;49.298;6.844;2023-03-14T04:21:24;16.70;53.30
35497;DHT22;21609;49.298;6.844;2023-03-14T04:23:49;16.70;53.30
35497;DHT22;21609;49.298;6.844;2023-03-14T04:26:15;16.70;53.30
35497;DHT22;21609;49.298;6.844;2023-03-14T04:28:41;16.70;53.30
35497;DHT22;21609;49.298;6.844;2023-03-14T04:31:21;16.70;53.30
35497;DHT22;21609;49.298;6.844;2023-03-14T04:33:47;16.70;53.20
35497;DHT22;21609;49.298;6.844;2023-03-14T04:36:13;16.70;53.30
35497;DHT22;21609;49.298;6.844;2023-03-14T04:38:39;16.70;53.30
35497;DHT22;21609;49.298;6.844;2023-03-14T04:41:05;16.70;53.30
35497;DHT22;21609;49.298;6.844;2023-03-14T04:43:30;16.70;53.30
35497;DHT22;21609;49.298;6.844;2023-03-14T04:45:57;16.70;53.30
35497;DHT22;21609;49.298;6.844;2023-03-14T04:48:24;16.70;53.30
35497;DHT22;21609;49.298;6.844;2023-03-14T04:50:50;16.70;53.30
35497;DHT22;21609;49.298;6.844;2023-03-14T04:53:16;16.70;53.30
35497;DHT22;21609;49.298;6.844;2023-03-14T04:55:47;16.70;53.30
35497;DHT22;21609;49.298;6.844;2023-03-14T04:58:13;16.70;53.30
35497;DHT22;21609;49.298;6.844;2023-03-14T05:00:38;16.70;53.30
35497;DHT22;21609;49.298;6.844;2023-03-14T05:03:04;16.70;53.30
35497;DHT22;21609;49.298;6.844;2023-03-14T05:05:29;16.70;53.30
35497;DHT22;21609;49.298;6.844;2023-03-14T05:07:55;16.70;53.30
35497;DHT22;21609;49.298;6.844;2023-03-14T05:10:20;16.70;53.30
35497;DHT22;21609;49.298;6.844;2023-03-14T05:12:46;16.70;53.30
35497;DHT22;21609;49.298;6.844;2023-03-14T05:15:11;16.70;53.30
35497;DHT22;21609;49.298;6.844;2023-03-14T05:17:37;16.70;53.30
35497;DHT22;21609;49.298;6.844;2023-03-14T05:20:03;16.70;53.30
35497;DHT22;21609;49.298;6.844;2023-03-14T05:22:34;16.60;53.30
35497;DHT22;21609;49.298;6.844;2023-03-14T05:24:59;16.70;53.30
35497;DHT22;21609;49.298;6.844;2023-03-14T05:27:25;16.60;53.20
35497;DHT22;21609;49.298;6.844;2023-03-14T05:29:50;16.60;53.20
35497;DHT22;21609;49.298;6.844;2023-03-14T05:32:16;16.70;53.30
35497;DHT22;21609;49.298;6.844;2023-03-14T05:34:41;16.70;53.30
35497;DHT22;21609;49.298;6.844;2023-03-14T05:37:07;16.60;53.30
35497;DHT22;21609;49.298;6.844;2023-03-14T05:39:32;16.60;53.20
35497;DHT22;21609;49.298;6.844;2023-03-14T05:41:58;16.60;53.30
35497;DHT22;21609;49.298;6.844;2023-03-14T05:44:24;16.60;53.30
35497;DHT22;21609;49.298;6.844;2023-03-14T05:46:49;16.60;53.30
35497;DHT22;21609;49.298;6.844;2023-03-14T05:49:15;16.60;53.30
35497;DHT22;21609;49.298;6.844;2023-03-14T05:51:41;16.60;53.30
35497;DHT22;21609;49.298;6.844;2023-03-14T05:54:07;16.60;53.30
35497;DHT22;21609;49.298;6.844;2023-03-14T05:56:32;16.60;53.30
35497;DHT22;21609;49.298;6.844;2023-03-14T05:58:58;16.60;53.30
35497;DHT22;21609;49.298;6.844;2023-03-14T06:01:24;16.60;53.30
35497;DHT22;21609;49.298;6.844;2023-03-14T06:03:49;16.60;53.50
35497;DHT22;21609;49.298;6.844;2023-03-14T06:06:15;16.60;53.40
35497;DHT22;21609;49.298;6.844;2023-03-14T06:08:41;16.60;53.40
35497;DHT22;21609;49.298;6.844;2023-03-14T06:11:07;16.60;53.40
35497;DHT22;21609;49.298;6.844;2023-03-14T06:13:33;16.60;53.40
35497;DHT22;21609;49.298;6.844;2023-03-14T06:15:59;16.60;53.40
35497;DHT22;21609;49.298;6.844;2023-03-14T06:18:24;16.60;53.40
35497;DHT22;21609;49.298;6.844;2023-03-14T06:20:53;16.60;53.40
35497;DHT22;21609;49.298;6.844;2023-03-14T06:23:19;16.60;53.40
35497;DHT22;21609;49.298;6.844;2023-03-14T06:25:45;16.60;53.40
35497;DHT22;21609;49.298;6.844;2023-03-14T06:28:10;16.60;53.40
35497;DHT22;21609;49.298;6.844;2023-03-14T06:30:36;16.60;53.40
35497;DHT22;21609;49.298;6.844;2023-03-14T06:33:01;16.60;53.40
35497;DHT22;21609;49.298;6.844;2023-03-14T06:35:27;16.60;53.50
35497;DHT22;21609;49.298;6.844;2023-03-14T06:37:52;16.60;53.50
35497;DHT22;21609;49.298;6.844;2023-03-14T06:40:18;16.60;53.60
35497;DHT22;21609;49.298;6.844;2023-03-14T06:42:44;16.50;53.60
35497;DHT22;21609;49.298;6.844;2023-03-14T06:45:10;16.60;53.60
35497;DHT22;21609;49.298;6.844;2023-03-14T06:47:36;16.60;53.50
35497;DHT22;21609;49.298;6.844;2023-03-14T06:50:04;16.60;53.50
35497;DHT22;21609;49.298;6.844;2023-03-14T06:52:30;16.60;53.50
35497;DHT22;21609;49.298;6.844;2023-03-14T06:54:55;16.60;53.50
35497;DHT22;21609;49.298;6.844;2023-03-14T06:57:21;16.60;53.50
35497;DHT22;21609;49.298;6.844;2023-03-14T06:59:46;16.60;53.50
35497;DHT22;21609;49.298;6.844;2023-03-14T07:02:12;16.50;53.40
35497;DHT22;21609;49.298;6.844;2023-03-14T07:04:38;16.60;53.50
35497;DHT22;21609;49.298;6.844;2023-03-14T07:07:04;16.60;53.50
35497;DHT22;21609;49.298;6.844;2023-03-14T07:09:29;16.50;53.40
35497;DHT22;21609;49.298;6.844;2023-03-14T07:11:55;16.50;53.40
35497;DHT22;21609;49.298;6.844;2023-03-14T07:14:20;16.60;53.50
35497;DHT22;21609;49.298;6.844;2023-03-14T07:16:46;16.60;53.50
35497;DHT22;21609;49.298;6.844;2023-03-14T07:19:11;16.60;53.50
35497;DHT22;21609;49.298;6.844;2023-03-14T07:21:37;16.50;53.40
35497;DHT22;21609;49.298;6.844;2023-03-14T07:24:03;16.60;53.50
35497;DHT22;21609;49.298;6.844;2023-03-14T07:26:29;16.60;53.60
35497;DHT22;21609;49.298;6.844;2023-03-14T07:28:54;16.60;53.60
35497;DHT22;21609;49.298;6.844;2023-03-14T07:31:20;16.60;53.70
35497;DHT22;21609;49.298;6.844;2023-03-14T07:33:45;16.60;53.70
35497;DHT22;21609;49.298;6.844;2023-03-14T07:36:11;16.60;53.70
35497;DHT22;21609;49.298;6.844;2023-03-14T07:38:37;16.60;53.70
35497;DHT22;21609;49.298;6.844;2023-03-14T07:41:05;16.60;53.70
35497;DHT22;21609;49.298;6.844;2023-03-14T07:43:30;16.60;53.70
35497;DHT22;21609;49.298;6.844;2023-03-14T07:45:56;16.60;53.70
35497;DHT22;21609;49.298;6.844;2023-03-14T07:48:22;16.60;53.70
35497;DHT22;21609;49.298;6.844;2023-03-14T07:50:51;16.60;53.70
35497;DHT22;21609;49.298;6.844;2023-03-14T07:53:17;16.60;53.80
35497;DHT22;21609;49.298;6.844;2023-03-14T07:55:43;16.60;53.70
35497;DHT22;21609;49.298;6.844;2023-03-14T07:58:09;16.70;54.40
35497;DHT22;21609;49.298;6.844;2023-03-14T08:00:34;16.60;53.80
35497;DHT22;21609;49.298;6.844;2023-03-14T08:03:00;16.60;53.90
35497;DHT22;21609;49.298;6.844;2023-03-14T08:05:25;16.70;53.90
35497;DHT22;21609;49.298;6.844;2023-03-14T08:07:51;16.70;54.00
35497;DHT22;21609;49.298;6.844;2023-03-14T08:10:16;16.70;53.90
35497;DHT22;21609;49.298;6.844;2023-03-14T08:12:50;16.60;53.90
35497;DHT22;21609;49.298;6.844;2023-03-14T08:15:15;16.70;53.90
35497;DHT22;21609;49.298;6.844;2023-03-14T08:17:41;16.70;54.00
35497;DHT22;21609;49.298;6.844;2023-03-14T08:20:07;16.70;54.00
35497;DHT22;21609;49.298;6.844;2023-03-14T08:22:34;16.70;54.00
35497;DHT22;21609;49.298;6.844;2023-03-14T08:24:59;16.70;54.00
35497;DHT22;21609;49.298;6.844;2023-03-14T08:27:25;16.70;54.00
35497;DHT22;21609;49.298;6.844;2023-03-14T08:29:50;16.80;54.20
35497;DHT22;21609;49.298;6.844;2023-03-14T08:32:16;17.20;53.60
35497;DHT22;21609;49.298;6.844;2023-03-14T08:34:42;17.30;53.30
35497;DHT22;21609;49.298;6.844;2023-03-14T08:37:07;17.50;53.10
35497;DHT22;21609;49.298;6.844;2023-03-14T08:39:33;17.70;53.10
35497;DHT22;21609;49.298;6.844;2023-03-14T08:41:58;17.80;52.90
35497;DHT22;21609;49.298;6.844;2023-03-14T08:44:24;17.60;53.00
35497;DHT22;21609;49.298;6.844;2023-03-14T08:46:49;17.40;53.40
35497;DHT22;21609;49.298;6.844;2023-03-14T08:49:15;17.30;53.60
35497;DHT22;21609;49.298;6.844;2023-03-14T08:51:40;17.20;53.80
35497;DHT22;21609;49.298;6.844;2023-03-14T08:54:06;17.20;53.90
35497;DHT22;21609;49.298;6.844;2023-03-14T08:56:31;17.10;53.90
35497;DHT22;21609;49.298;6.844;2023-03-14T08:58:57;17.10;54.10
35497;DHT22;21609;49.298;6.844;2023-03-14T09:01:22;17.10;54.10
35497;DHT22;21609;49.298;6.844;2023-03-14T09:03:50;17.10;54.10
35497;DHT22;21609;49.298;6.844;2023-03-14T09:06:16;17.10;54.10
35497;DHT22;21609;49.298;6.844;2023-03-14T09:08:45;17.00;54.10
35497;DHT22;21609;49.298;6.844;2023-03-14T09:11:11;17.10;54.30
35497;DHT22;21609;49.298;6.844;2023-03-14T09:13:37;17.00;54.30
35497;DHT22;21609;49.298;6.844;2023-03-14T09:16:03;17.00;54.30
35497;DHT22;21609;49.298;6.844;2023-03-14T09:18:28;17.00;54.50
35497;DHT22;21609;49.298;6.844;2023-03-14T09:20:55;17.00;54.60
35497;DHT22;21609;49.298;6.844;2023-03-14T09:23:21;17.00;54.70
35497;DHT22;21609;49.298;6.844;2023-03-14T09:25:46;17.00;54.90
35497;DHT22;21609;49.298;6.844;2023-03-14T09:28:12;17.00;54.90
35497;DHT22;21609;49.298;6.844;2023-03-14T09:30:38;17.00;55.10
35497;DHT22;21609;49.298;6.844;2023-03-14T09:33:04;17.00;55.00
35497;DHT22;21609;49.298;6.844;2023-03-14T09:35:29;17.00;55.00
35497;DHT22;21609;49.298;6.844;2023-03-14T09:37:55;17.00;55.00
35497;DHT22;21609;49.298;6.844;2023-03-14T09:40:21;17.00;55.00
35497;DHT22;21609;49.298;6.844;2023-03-14T09:42:50;17.00;55.10
35497;DHT22;21609;49.298;6.844;2023-03-14T09:45:34;17.00;55.10
35497;DHT22;21609;49.298;6.844;2023-03-14T09:48:03;17.00;55.30
35497;DHT22;21609;49.298;6.844;2023-03-14T09:50:56;17.00;55.50
35497;DHT22;21609;49.298;6.844;2023-03-14T09:53:30;17.00;55.90
35497;DHT22;21609;49.298;6.844;2023-03-14T09:55:57;17.00;55.70
35497;DHT22;21609;49.298;6.844;2023-03-14T09:58:24;17.00;55.80
35497;DHT22;21609;49.298;6.844;2023-03-14T10:00:52;16.90;55.60
35497;DHT22;21609;49.298;6.844;2023-03-14T10:03:22;16.90;55.50
35497;DHT22;21609;49.298;6.844;2023-03-14T10:05:49;17.00;55.60
35497;DHT22;21609;49.298;6.844;2023-03-14T10:08:15;16.90;55.50
35497;DHT22;21609;49.298;6.844;2023-03-14T10:10:41;17.00;55.60
35497;DHT22;21609;49.298;6.844;2023-03-14T10:15:35;17.00;55.40
35497;DHT22;21609;49.298;6.844;2023-03-14T10:18:03;17.00;55.50
35497;DHT22;21609;49.298;6.844;2023-03-14T10:20:31;17.00;55.30
35497;DHT22;21609;49.298;6.844;2023-03-14T10:23:01;17.00;55.10
35497;DHT22;21609;49.298;6.844;2023-03-14T10:25:30;17.00;55.40
35497;DHT22;21609;49.298;6.844;2023-03-14T10:27:56;16.90;55.00
35497;DHT22;21609;49.298;6.844;2023-03-14T10:30:38;16.90;54.90
35497;DHT22;21609;49.298;6.844;2023-03-14T10:33:21;16.90;54.90
35497;DHT22;21609;49.298;6.844;2023-03-14T10:35:53;16.90;54.80
35497;DHT22;21609;49.298;6.844;2023-03-14T10:38:23;16.90;54.70
35497;DHT22;21609;49.298;6.844;2023-03-14T10:40:50;16.90;54.70
35497;DHT22;21609;49.298;6.844;2023-03-14T10:43:32;16.90;54.80
35497;DHT22;21609;49.298;6.844;2023-03-14T10:46:06;16.90;54.70
35497;DHT22;21609;49.298;6.844;2023-03-14T10:48:38;16.90;54.60
35497;DHT22;21609;49.298;6.844;2023-03-14T10:51:07;16.80;54.50
35497;DHT22;21609;49.298;6.844;2023-03-14T10:53:40;16.80;54.50
35497;DHT22;21609;49.298;6.844;2023-03-14T10:56:07;16.80;54.40
35497;DHT22;21609;49.298;6.844;2023-03-14T10:58:38;16.90;54.40
35497;DHT22;21609;49.298;6.844;2023-03-14T11:01:26;16.80;54.40
35497;DHT22;21609;49.298;6.844;2023-03-14T11:07:21;16.80;54.30
35497;DHT22;21609;49.298;6.844;2023-03-14T11:15:26;17.00;54.30
35497;DHT22;21609;49.298;6.844;2023-03-14T11:23:37;17.00;54.20
35497;DHT22;21609;49.298;6.844;2023-03-14T11:28:38;17.00;54.10
35497;DHT22;21609;49.298;6.844;2023-03-14T11:31:14;17.00;54.00
35497;DHT22;21609;49.298;6.844;2023-03-14T11:33:57;17.00;54.00
35497;DHT22;21609;49.298;6.844;2023-03-14T11:36:46;17.00;53.90
35497;DHT22;21609;49.298;6.844;2023-03-14T11:39:18;17.10;54.00
35497;DHT22;21609;49.298;6.844;2023-03-14T11:41:47;17.10;54.00
35497;DHT22;21609;49.298;6.844;2023-03-14T11:44:19;17.10;53.90
35497;DHT22;21609;49.298;6.844;2023-03-14T11:47:08;17.20;53.90
35497;DHT22;21609;49.298;6.844;2023-03-14T11:52:20;17.30;54.00
35497;DHT22;21609;49.298;6.844;2023-03-14T11:54:58;17.30;55.10
35497;DHT22;21609;49.298;6.844;2023-03-14T11:57:25;17.40;54.40
35497;DHT22;21609;49.298;6.844;2023-03-14T12:00:02;17.50;54.20
35497;DHT22;21609;49.298;6.844;2023-03-14T12:02:44;17.50;54.20
35497;DHT22;21609;49.298;6.844;2023-03-14T12:10:51;17.50;54.00
35497;DHT22;21609;49.298;6.844;2023-03-14T12:13:18;17.50;54.00
35497;DHT22;21609;49.298;6.844;2023-03-14T12:15:58;17.50;54.00
35497;DHT22;21609;49.298;6.844;2023-03-14T12:18:38;17.40;53.90
35497;DHT22;21609;49.298;6.844;2023-03-14T12:21:06;17.40;53.90
35497;DHT22;21609;49.298;6.844;2023-03-14T12:23:53;17.40;53.80
35497;DHT22;21609;49.298;6.844;2023-03-14T12:26:24;17.40;53.70
35497;DHT22;21609;49.298;6.844;2023-03-14T12:37:10;17.50;53.70
35497;DHT22;21609;49.298;6.844;2023-03-14T12:48:28;17.70;53.30
35497;DHT22;21609;49.298;6.844;2023-03-14T12:50:55;17.70;53.30
35497;DHT22;21609;49.298;6.844;2023-03-14T12:59:35;17.70;53.30
35497;DHT22;21609;49.298;6.844;2023-03-14T13:10:27;17.80;53.40
35497;DHT22;21609;49.298;6.844;2023-03-14T13:15:32;17.90;52.80
35497;DHT22;21609;49.298;6.844;2023-03-14T13:18:17;17.90;52.90
35497;DHT22;21609;49.298;6.844;2023-03-14T13:20:51;17.90;52.70
35497;DHT22;21609;49.298;6.844;2023-03-14T13:23:38;18.00;52.80
35497;DHT22;21609;49.298;6.844;2023-03-14T13:26:11;18.00;52.80
35497;DHT22;21609;49.298;6.844;2023-03-14T13:28:39;18.00;52.90
35497;DHT22;21609;49.298;6.844;2023-03-14T13:31:05;18.00;52.90
35497;DHT22;21609;49.298;6.844;2023-03-14T13:33:33;18.10;52.70
35497;DHT22;21609;49.298;6.844;2023-03-14T13:36:00;18.10;52.60
35497;DHT22;21609;49.298;6.844;2023-03-14T13:38:30;18.10;52.50
35497;DHT22;21609;49.298;6.844;2023-03-14T13:40:58;18.00;52.40
35497;DHT22;21609;49.298;6.844;2023-03-14T13:43:40;18.00;52.60
35497;DHT22;21609;49.298;6.844;2023-03-14T13:46:12;18.00;52.40
35497;DHT22;21609;49.298;6.844;2023-03-14T13:48:48;18.10;52.60
35497;DHT22;21609;49.298;6.844;2023-03-14T13:51:17;18.00;52.40
35497;DHT22;21609;49.298;6.844;2023-03-14T13:53:48;18.10;52.60
35497;DHT22;21609;49.298;6.844;2023-03-14T13:56:16;18.10;52.40
35497;DHT22;21609;49.298;6.844;2023-03-14T13:58:43;18.10;52.40
35497;DHT22;21609;49.298;6.844;2023-03-14T14:01:32;18.10;52.40
35497;DHT22;21609;49.298;6.844;2023-03-14T14:04:02;18.10;52.10
35497;DHT22;21609;49.298;6.844;2023-03-14T14:06:33;18.10;52.30
35497;DHT22;21609;49.298;6.844;2023-03-14T14:09:03;18.10;52.40
35497;DHT22;21609;49.298;6.844;2023-03-14T14:11:36;18.10;52.30
35497;DHT22;21609;49.298;6.844;2023-03-14T14:14:05;18.20;52.20
35497;DHT22;21609;49.298;6.844;2023-03-14T14:16:31;18.20;52.30
35497;DHT22;21609;49.298;6.844;2023-03-14T14:18:58;18.20;52.40
35497;DHT22;21609;49.298;6.844;2023-03-14T14:21:25;18.20;52.30
35497;DHT22;21609;49.298;6.844;2023-03-14T14:23:50;18.20;52.20
35497;DHT22;21609;49.298;6.844;2023-03-14T14:26:18;18.20;52.20
35497;DHT22;21609;49.298;6.844;2023-03-14T14:28:45;18.30;52.40
35497;DHT22;21609;49.298;6.844;2023-03-14T14:33:42;18.50;52.50
35497;DHT22;21609;49.298;6.844;2023-03-14T14:36:26;18.50;52.30
35497;DHT22;21609;49.298;6.844;2023-03-14T14:38:54;18.50;52.10
35497;DHT22;21609;49.298;6.844;2023-03-14T14:41:26;18.60;52.40
35497;DHT22;21609;49.298;6.844;2023-03-14T14:43:52;18.70;52.50
35497;DHT22;21609;49.298;6.844;2023-03-14T14:46:19;18.80;52.50
35497;DHT22;21609;49.298;6.844;2023-03-14T14:48:44;18.90;52.40
35497;DHT22;21609;49.298;6.844;2023-03-14T14:51:23;19.00;52.30
35497;DHT22;21609;49.298;6.844;2023-03-14T14:53:49;19.10;52.20
35497;DHT22;21609;49.298;6.844;2023-03-14T14:56:21;19.00;52.00
35497;DHT22;21609;49.298;6.844;2023-03-14T14:58:59;19.00;52.00
35497;DHT22;21609;49.298;6.844;2023-03-14T15:01:32;19.00;52.00
35497;DHT22;21609;49.298;6.844;2023-03-14T15:03:58;19.00;52.00
35497;DHT22;21609;49.298;6.844;2023-03-14T15:06:28;18.90;52.00
35497;DHT22;21609;49.298;6.844;2023-03-14T15:08:54;18.90;51.90
35497;DHT22;21609;49.298;6.844;2023-03-14T15:11:23;18.80;52.10
35497;DHT22;21609;49.298;6.844;2023-03-14T15:13:49;18.80;51.80
35497;DHT22;21609;49.298;6.844;2023-03-14T15:16:17;18.80;51.80
35497;DHT22;21609;49.298;6.844;2023-03-14T15:18:43;18.80;51.70
35497;DHT22;21609;49.298;6.844;2023-03-14T15:21:10;18.80;51.70
35497;DHT22;21609;49.298;6.844;2023-03-14T15:23:36;18.70;51.70
35497;DHT22;21609;49.298;6.844;2023-03-14T15:26:01;18.70;51.60
35497;DHT22;21609;49.298;6.844;2023-03-14T15:28:29;18.70;51.60
35497;DHT22;21609;49.298;6.844;2023-03-14T15:30:57;18.70;51.60
35497;DHT22;21609;49.298;6.844;2023-03-14T15:33:27;18.70;51.60
35497;DHT22;21609;49.298;6.844;2023-03-14T15:35:53;18.60;51.40
35497;DHT22;21609;49.298;6.844;2023-03-14T15:38:20;18.60;51.50
35497;DHT22;21609;49.298;6.844;2023-03-14T15:40:51;18.60;51.50
35497;DHT22;21609;49.298;6.844;2023-03-14T15:43:17;18.60;51.40
35497;DHT22;21609;49.298;6.844;2023-03-14T15:45:43;18.70;51.40
35497;DHT22;21609;49.298;6.844;2023-03-14T15:48:15;18.60;51.50
35497;DHT22;21609;49.298;6.844;2023-03-14T15:50:42;18.60;51.40
35497;DHT22;21609;49.298;6.844;2023-03-14T15:53:07;18.60;51.30
35497;DHT22;21609;49.298;6.844;2023-03-14T15:55:33;18.60;51.40
35497;DHT22;21609;49.298;6.844;2023-03-14T15:57:58;18.50;51.40
35497;DHT22;21609;49.298;6.844;2023-03-14T16:00:26;18.50;51.40
35497;DHT22;21609;49.298;6.844;2023-03-14T16:02:51;18.50;51.40
35497;DHT22;21609;49.298;6.844;2023-03-14T16:05:17;18.50;51.50
35497;DHT22;21609;49.298;6.844;2023-03-14T16:07:44;18.50;51.50
35497;DHT22;21609;49.298;6.844;2023-03-14T16:10:11;18.50;51.40
35497;DHT22;21609;49.298;6.844;2023-03-14T16:12:37;18.40;51.20
35497;DHT22;21609;49.298;6.844;2023-03-14T16:15:03;18.40;51.20
35497;DHT22;21609;49.298;6.844;2023-03-14T16:17:29;18.40;51.30
35497;DHT22;21609;49.298;6.844;2023-03-14T16:19:54;18.40;51.20
35497;DHT22;21609;49.298;6.844;2023-03-14T16:22:20;18.40;51.30
35497;DHT22;21609;49.298;6.844;2023-03-14T16:24:46;18.30;51.20
35497;DHT22;21609;49.298;6.844;2023-03-14T16:27:11;18.30;51.30
35497;DHT22;21609;49.298;6.844;2023-03-14T16:29:37;18.30;51.30
35497;DHT22;21609;49.298;6.844;2023-03-14T16:32:02;18.30;51.30
35497;DHT22;21609;49.298;6.844;2023-03-14T16:34:28;18.30;51.40
35497;DHT22;21609;49.298;6.844;2023-03-14T16:36:54;18.20;51.30
35497;DHT22;21609;49.298;6.844;2023-03-14T16:39:20;18.20;51.30
35497;DHT22;21609;49.298;6.844;2023-03-14T16:41:46;18.20;51.30